sensor_id;sensor_type;location;lat;lon;timestamp;temperature;humidity
48454;DHT22;34261;55.678;12.464;2022-10-16T00:01:59;15.00;99.90
48454;DHT22;34261;55.678;12.464;2022-10-16T00:04:24;15.00;99.90
48454;DHT22;34261;55.678;12.464;2022-10-16T00:06:49;14.90;99.90
48454;DHT22;34261;55.678;12.464;2022-10-16T00:09:15;14.90;99.90
48454;DHT22;34261;55.678;12.464;2022-10-16T00:11:41;14.90;99.90
48454;DHT22;34261;55.678;12.464;2022-10-16T00:14:07;14.90;99.90
48454;DHT22;34261;55.678;12.464;2022-10-16T00:16:34;14.90;99.90
48454;DHT22;34261;55.678;12.464;2022-10-16T00:18:59;14.80;99.90
48454;DHT22;34261;55.678;12.464;2022-10-16T00:21:26;14.80;99.90
48454;DHT22;34261;55.678;12.464;2022-10-16T00:23:52;14.80;99.90
48454;DHT22;34261;55.678;12.464;2022-10-16T00:26:19;14.70;99.90
48454;DHT22;34261;55.678;12.464;2022-10-16T00:28:45;14.70;99.90
48454;DHT22;34261;55.678;12.464;2022-10-16T00:31:11;14.70;99.90
48454;DHT22;34261;55.678;12.464;2022-10-16T00:33:37;14.70;99.90
48454;DHT22;34261;55.678;12.464;2022-10-16T00:36:03;14.60;99.90
48454;DHT22;34261;55.678;12.464;2022-10-16T00:38:29;14.60;99.90
48454;DHT22;34261;55.678;12.464;2022-10-16T00:40:55;14.60;99.90
48454;DHT22;34261;55.678;12.464;2022-10-16T00:43:34;14.60;99.90
48454;DHT22;34261;55.678;12.464;2022-10-16T00:46:01;14.60;99.90
48454;DHT22;34261;55.678;12.464;2022-10-16T00:48:27;14.50;99.90
48454;DHT22;34261;55.678;12.464;2022-10-16T00:50:52;14.60;99.90
48454;DHT22;34261;55.678;12.464;2022-10-16T00:53:18;14.50;99.90
48454;DHT22;34261;55.678;12.464;2022-10-16T00:55:44;14.50;99.90
48454;DHT22;34261;55.678;12.464;2022-10-16T00:58:11;14.40;99.90
48454;DHT22;34261;55.678;12.464;2022-10-16T01:00:36;14.50;99.90
48454;DHT22;34261;55.678;12.464;2022-10-16T01:03:02;14.50;99.90
48454;DHT22;34261;55.678;12.464;2022-10-16T01:05:33;14.50;99.90
48454;DHT22;34261;55.678;12.464;2022-10-16T01:08:12;14.50;99.90
48454;DHT22;34261;55.678;12.464;2022-10-16T01:13:09;14.50;99.90
48454;DHT22;34261;55.678;12.464;2022-10-16T01:20:35;14.50;99.90
48454;DHT22;34261;55.678;12.464;2022-10-16T01:28:34;14.40;99.90
48454;DHT22;34261;55.678;12.464;2022-10-16T01:31:01;14.40;99.90
48454;DHT22;34261;55.678;12.464;2022-10-16T01:33:35;14.40;99.90
48454;DHT22;34261;55.678;12.464;2022-10-16T01:36:02;14.40;99.90
48454;DHT22;34261;55.678;12.464;2022-10-16T01:38:36;14.40;99.90
48454;DHT22;34261;55.678;12.464;2022-10-16T01:41:04;14.40;99.90
48454;DHT22;34261;55.678;12.464;2022-10-16T01:43:39;14.40;99.90
48454;DHT22;34261;55.678;12.464;2022-10-16T01:46:05;14.30;99.90
48454;DHT22;34261;55.678;12.464;2022-10-16T01:48:32;14.30;99.90
48454;DHT22;34261;55.678;12.464;2022-10-16T01:51:00;14.30;99.90
48454;DHT22;34261;55.678;12.464;2022-10-16T01:53:26;14.30;99.90
48454;DHT22;34261;55.678;12.464;2022-10-16T01:55:52;14.30;99.90
48454;DHT22;34261;55.678;12.464;2022-10-16T01:58:19;14.30;99.90
48454;DHT22;34261;55.678;12.464;2022-10-16T02:00:45;14.30;99.90
48454;DHT22;34261;55.678;12.464;2022-10-16T02:03:12;14.30;99.90
48454;DHT22;34261;55.678;12.464;2022-10-16T02:05:45;14.20;99.90
48454;DHT22;34261;55.678;12.464;2022-10-16T02:08:11;14.20;99.90
48454;DHT22;34261;55.678;12.464;2022-10-16T02:10:37;14.20;99.90
48454;DHT22;34261;55.678;12.464;2022-10-16T02:13:05;14.20;99.90
48454;DHT22;34261;55.678;12.464;2022-10-16T02:15:31;14.20;99.90
48454;DHT22;34261;55.678;12.464;2022-10-16T02:17:57;14.20;99.90
48454;DHT22;34261;55.678;12.464;2022-10-16T02:20:25;14.20;99.90
48454;DHT22;34261;55.678;12.464;2022-10-16T02:22:51;14.20;99.90
48454;DHT22;34261;55.678;12.464;2022-10-16T02:25:19;14.20;99.90
48454;DHT22;34261;55.678;12.464;2022-10-16T02:27:57;14.10;99.90
48454;DHT22;34261;55.678;12.464;2022-10-16T02:30:30;14.10;99.90
48454;DHT22;34261;55.678;12.464;2022-10-16T02:32:58;14.10;99.90
48454;DHT22;34261;55.678;12.464;2022-10-16T02:35:25;14.00;99.90
48454;DHT22;34261;55.678;12.464;2022-10-16T02:37:55;14.00;99.90
48454;DHT22;34261;55.678;12.464;2022-10-16T02:40:21;14.00;99.90
48454;DHT22;34261;55.678;12.464;2022-10-16T02:42:49;14.00;99.90
48454;DHT22;34261;55.678;12.464;2022-10-16T02:45:15;14.00;99.90
48454;DHT22;34261;55.678;12.464;2022-10-16T02:47:40;14.00;99.90
48454;DHT22;34261;55.678;12.464;2022-10-16T02:50:06;14.00;99.90
48454;DHT22;34261;55.678;12.464;2022-10-16T02:52:31;14.00;99.90
48454;DHT22;34261;55.678;12.464;2022-10-16T02:54:58;14.00;99.90
48454;DHT22;34261;55.678;12.464;2022-10-16T02:57:24;14.00;99.90
48454;DHT22;34261;55.678;12.464;2022-10-16T02:59:49;14.00;99.90
48454;DHT22;34261;55.678;12.464;2022-10-16T03:02:14;14.00;99.90
48454;DHT22;34261;55.678;12.464;2022-10-16T03:04:40;13.90;99.90
48454;DHT22;34261;55.678;12.464;2022-10-16T03:07:05;13.90;99.90
48454;DHT22;34261;55.678;12.464;2022-10-16T03:09:31;14.00;99.90
48454;DHT22;34261;55.678;12.464;2022-10-16T03:11:57;13.90;99.90
48454;DHT22;34261;55.678;12.464;2022-10-16T03:14:22;13.90;99.90
48454;DHT22;34261;55.678;12.464;2022-10-16T03:16:49;13.90;99.90
48454;DHT22;34261;55.678;12.464;2022-10-16T03:19:15;13.80;99.90
48454;DHT22;34261;55.678;12.464;2022-10-16T03:21:41;13.80;99.90
48454;DHT22;34261;55.678;12.464;2022-10-16T03:24:06;13.80;99.90
48454;DHT22;34261;55.678;12.464;2022-10-16T03:26:32;13.90;99.90
48454;DHT22;34261;55.678;12.464;2022-10-16T03:28:57;13.90;99.90
48454;DHT22;34261;55.678;12.464;2022-10-16T03:31:24;13.90;99.90
48454;DHT22;34261;55.678;12.464;2022-10-16T03:33:50;13.90;99.90
48454;DHT22;34261;55.678;12.464;2022-10-16T03:36:15;13.90;99.90
48454;DHT22;34261;55.678;12.464;2022-10-16T03:38:41;13.90;99.90
48454;DHT22;34261;55.678;12.464;2022-10-16T03:41:06;13.80;99.90
48454;DHT22;34261;55.678;12.464;2022-10-16T03:43:34;13.90;99.90
48454;DHT22;34261;55.678;12.464;2022-10-16T03:45:59;13.90;99.90
48454;DHT22;34261;55.678;12.464;2022-10-16T03:48:26;13.90;99.90
48454;DHT22;34261;55.678;12.464;2022-10-16T03:50:51;13.90;99.90
48454;DHT22;34261;55.678;12.464;2022-10-16T03:53:17;14.00;99.90
48454;DHT22;34261;55.678;12.464;2022-10-16T03:55:43;14.00;99.90
48454;DHT22;34261;55.678;12.464;2022-10-16T03:58:08;14.00;99.90
48454;DHT22;34261;55.678;12.464;2022-10-16T04:00:34;14.00;99.90
48454;DHT22;34261;55.678;12.464;2022-10-16T04:03:00;14.10;99.90
48454;DHT22;34261;55.678;12.464;2022-10-16T04:05:25;14.10;99.90
48454;DHT22;34261;55.678;12.464;2022-10-16T04:07:51;14.10;99.90
48454;DHT22;34261;55.678;12.464;2022-10-16T04:10:17;14.10;99.90
48454;DHT22;34261;55.678;12.464;2022-10-16T04:12:43;14.20;99.90
48454;DHT22;34261;55.678;12.464;2022-10-16T04:15:10;14.20;99.90
48454;DHT22;34261;55.678;12.464;2022-10-16T04:17:35;14.20;99.90
48454;DHT22;34261;55.678;12.464;2022-10-16T04:20:01;14.20;99.90
48454;DHT22;34261;55.678;12.464;2022-10-16T04:22:26;14.20;99.90
48454;DHT22;34261;55.678;12.464;2022-10-16T04:24:52;14.20;99.90
48454;DHT22;34261;55.678;12.464;2022-10-16T04:27:19;14.20;99.90
48454;DHT22;34261;55.678;12.464;2022-10-16T04:29:44;14.20;99.90
48454;DHT22;34261;55.678;12.464;2022-10-16T04:32:10;14.20;99.90
48454;DHT22;34261;55.678;12.464;2022-10-16T04:34:35;14.20;99.90
48454;DHT22;34261;55.678;12.464;2022-10-16T04:37:02;14.10;99.90
48454;DHT22;34261;55.678;12.464;2022-10-16T04:39:27;14.10;99.90
48454;DHT22;34261;55.678;12.464;2022-10-16T04:41:53;14.20;99.90
48454;DHT22;34261;55.678;12.464;2022-10-16T04:44:18;14.20;99.90
48454;DHT22;34261;55.678;12.464;2022-10-16T04:46:44;14.20;99.90
48454;DHT22;34261;55.678;12.464;2022-10-16T04:49:09;14.20;99.90
48454;DHT22;34261;55.678;12.464;2022-10-16T04:51:35;14.20;99.90
48454;DHT22;34261;55.678;12.464;2022-10-16T04:54:00;14.20;99.90
48454;DHT22;34261;55.678;12.464;2022-10-16T04:56:27;14.20;99.90
48454;DHT22;34261;55.678;12.464;2022-10-16T04:58:52;14.20;99.90
48454;DHT22;34261;55.678;12.464;2022-10-16T05:01:17;14.20;99.90
48454;DHT22;34261;55.678;12.464;2022-10-16T05:03:44;14.20;99.90
48454;DHT22;34261;55.678;12.464;2022-10-16T05:06:10;14.30;99.90
48454;DHT22;34261;55.678;12.464;2022-10-16T05:08:35;14.30;99.90
48454;DHT22;34261;55.678;12.464;2022-10-16T05:11:01;14.30;99.90
48454;DHT22;34261;55.678;12.464;2022-10-16T05:13:27;14.40;99.90
48454;DHT22;34261;55.678;12.464;2022-10-16T05:15:52;14.30;99.90
48454;DHT22;34261;55.678;12.464;2022-10-16T05:18:19;14.40;99.90
48454;DHT22;34261;55.678;12.464;2022-10-16T05:20:44;14.40;99.90
48454;DHT22;34261;55.678;12.464;2022-10-16T05:23:10;14.40;99.90
48454;DHT22;34261;55.678;12.464;2022-10-16T05:25:37;14.40;99.90
48454;DHT22;34261;55.678;12.464;2022-10-16T05:28:02;14.40;99.90
48454;DHT22;34261;55.678;12.464;2022-10-16T05:30:28;14.40;99.90
48454;DHT22;34261;55.678;12.464;2022-10-16T05:32:53;14.30;99.90
48454;DHT22;34261;55.678;12.464;2022-10-16T05:35:19;14.40;99.90
48454;DHT22;34261;55.678;12.464;2022-10-16T05:37:45;14.40;99.90
48454;DHT22;34261;55.678;12.464;2022-10-16T05:40:11;14.40;99.90
48454;DHT22;34261;55.678;12.464;2022-10-16T05:42:38;14.30;99.90
48454;DHT22;34261;55.678;12.464;2022-10-16T05:45:04;14.40;99.90
48454;DHT22;34261;55.678;12.464;2022-10-16T05:47:30;14.40;99.90
48454;DHT22;34261;55.678;12.464;2022-10-16T05:49:55;14.40;99.90
48454;DHT22;34261;55.678;12.464;2022-10-16T05:52:21;14.40;99.90
48454;DHT22;34261;55.678;12.464;2022-10-16T05:54:46;14.40;99.90
48454;DHT22;34261;55.678;12.464;2022-10-16T05:57:13;14.40;99.90
48454;DHT22;34261;55.678;12.464;2022-10-16T05:59:38;14.40;99.90
48454;DHT22;34261;55.678;12.464;2022-10-16T06:02:04;14.40;99.90
48454;DHT22;34261;55.678;12.464;2022-10-16T06:04:31;14.40;99.90
48454;DHT22;34261;55.678;12.464;2022-10-16T06:06:58;14.40;99.90
48454;DHT22;34261;55.678;12.464;2022-10-16T06:09:26;14.40;99.90
48454;DHT22;34261;55.678;12.464;2022-10-16T06:11:52;14.50;99.90
48454;DHT22;34261;55.678;12.464;2022-10-16T06:14:17;14.40;99.90
48454;DHT22;34261;55.678;12.464;2022-10-16T06:16:44;14.40;99.90
48454;DHT22;34261;55.678;12.464;2022-10-16T06:19:09;14.40;99.90
48454;DHT22;34261;55.678;12.464;2022-10-16T06:21:35;14.40;99.90
48454;DHT22;34261;55.678;12.464;2022-10-16T06:24:00;14.40;99.90
48454;DHT22;34261;55.678;12.464;2022-10-16T06:26:27;14.40;99.90
48454;DHT22;34261;55.678;12.464;2022-10-16T06:28:54;14.30;99.90
48454;DHT22;34261;55.678;12.464;2022-10-16T06:31:19;14.30;99.90
48454;DHT22;34261;55.678;12.464;2022-10-16T06:33:44;14.30;99.90
48454;DHT22;34261;55.678;12.464;2022-10-16T06:36:14;14.30;99.90
48454;DHT22;34261;55.678;12.464;2022-10-16T06:38:40;14.30;99.90
48454;DHT22;34261;55.678;12.464;2022-10-16T06:41:06;14.30;99.90
48454;DHT22;34261;55.678;12.464;2022-10-16T06:43:32;14.30;99.90
48454;DHT22;34261;55.678;12.464;2022-10-16T06:46:00;14.30;99.90
48454;DHT22;34261;55.678;12.464;2022-10-16T06:48:26;14.20;99.90
48454;DHT22;34261;55.678;12.464;2022-10-16T06:53:30;14.20;99.90
48454;DHT22;34261;55.678;12.464;2022-10-16T06:56:15;14.30;99.90
48454;DHT22;34261;55.678;12.464;2022-10-16T06:58:41;14.30;99.90
48454;DHT22;34261;55.678;12.464;2022-10-16T07:01:07;14.30;99.90
48454;DHT22;34261;55.678;12.464;2022-10-16T07:03:33;14.30;99.90
48454;DHT22;34261;55.678;12.464;2022-10-16T07:06:01;14.30;99.90
48454;DHT22;34261;55.678;12.464;2022-10-16T07:08:32;14.30;99.90
48454;DHT22;34261;55.678;12.464;2022-10-16T07:11:03;14.30;99.90
48454;DHT22;34261;55.678;12.464;2022-10-16T07:13:31;14.40;99.90
48454;DHT22;34261;55.678;12.464;2022-10-16T07:15:57;14.40;99.90
48454;DHT22;34261;55.678;12.464;2022-10-16T07:18:23;14.40;99.90
48454;DHT22;34261;55.678;12.464;2022-10-16T07:20:53;14.40;99.90
48454;DHT22;34261;55.678;12.464;2022-10-16T07:23:18;14.40;99.90
48454;DHT22;34261;55.678;12.464;2022-10-16T07:25:45;14.40;99.90
48454;DHT22;34261;55.678;12.464;2022-10-16T07:28:11;14.40;99.90
48454;DHT22;34261;55.678;12.464;2022-10-16T07:30:37;14.40;99.90
48454;DHT22;34261;55.678;12.464;2022-10-16T07:33:03;14.50;99.90
48454;DHT22;34261;55.678;12.464;2022-10-16T07:35:28;14.60;99.90
48454;DHT22;34261;55.678;12.464;2022-10-16T07:37:54;14.60;99.90
48454;DHT22;34261;55.678;12.464;2022-10-16T07:40:19;14.60;99.90
48454;DHT22;34261;55.678;12.464;2022-10-16T07:42:45;14.60;99.90
48454;DHT22;34261;55.678;12.464;2022-10-16T07:45:10;14.60;99.90
48454;DHT22;34261;55.678;12.464;2022-10-16T07:47:36;14.70;99.90
48454;DHT22;34261;55.678;12.464;2022-10-16T07:50:02;14.70;99.90
48454;DHT22;34261;55.678;12.464;2022-10-16T07:52:27;14.80;99.90
48454;DHT22;34261;55.678;12.464;2022-10-16T07:54:53;14.80;99.90
48454;DHT22;34261;55.678;12.464;2022-10-16T07:57:18;14.90;99.90
48454;DHT22;34261;55.678;12.464;2022-10-16T07:59:45;15.00;99.90
48454;DHT22;34261;55.678;12.464;2022-10-16T08:02:14;15.00;99.90
48454;DHT22;34261;55.678;12.464;2022-10-16T08:04:39;14.90;99.90
48454;DHT22;34261;55.678;12.464;2022-10-16T08:07:06;14.80;99.90
48454;DHT22;34261;55.678;12.464;2022-10-16T08:09:33;14.90;99.90
48454;DHT22;34261;55.678;12.464;2022-10-16T08:11:58;15.00;99.90
48454;DHT22;34261;55.678;12.464;2022-10-16T08:14:23;14.90;99.90
48454;DHT22;34261;55.678;12.464;2022-10-16T08:16:49;15.00;99.90
48454;DHT22;34261;55.678;12.464;2022-10-16T08:19:14;15.00;99.90
48454;DHT22;34261;55.678;12.464;2022-10-16T08:21:40;15.10;99.90
48454;DHT22;34261;55.678;12.464;2022-10-16T08:24:06;15.10;99.90
48454;DHT22;34261;55.678;12.464;2022-10-16T08:26:31;15.30;99.90
48454;DHT22;34261;55.678;12.464;2022-10-16T08:28:57;15.40;99.90
48454;DHT22;34261;55.678;12.464;2022-10-16T08:31:23;15.40;99.90
48454;DHT22;34261;55.678;12.464;2022-10-16T08:33:48;15.40;99.90
48454;DHT22;34261;55.678;12.464;2022-10-16T08:36:14;15.40;99.90
48454;DHT22;34261;55.678;12.464;2022-10-16T08:38:40;15.50;99.90
48454;DHT22;34261;55.678;12.464;2022-10-16T08:44:05;15.60;99.90
48454;DHT22;34261;55.678;12.464;2022-10-16T08:49:05;15.40;99.90
48454;DHT22;34261;55.678;12.464;2022-10-16T08:51:36;15.40;99.90
48454;DHT22;34261;55.678;12.464;2022-10-16T08:54:06;15.30;99.90
48454;DHT22;34261;55.678;12.464;2022-10-16T08:56:32;15.40;99.90
48454;DHT22;34261;55.678;12.464;2022-10-16T08:58:59;15.60;99.90
48454;DHT22;34261;55.678;12.464;2022-10-16T09:01:27;15.70;99.90
48454;DHT22;34261;55.678;12.464;2022-10-16T09:06:36;15.80;99.90
48454;DHT22;34261;55.678;12.464;2022-10-16T09:16:48;15.90;99.90
48454;DHT22;34261;55.678;12.464;2022-10-16T09:19:19;16.00;99.90
48454;DHT22;34261;55.678;12.464;2022-10-16T09:21:46;16.20;99.90
48454;DHT22;34261;55.678;12.464;2022-10-16T09:24:14;16.30;99.90
48454;DHT22;34261;55.678;12.464;2022-10-16T09:26:40;16.30;99.90
48454;DHT22;34261;55.678;12.464;2022-10-16T09:29:05;16.40;99.90
48454;DHT22;34261;55.678;12.464;2022-10-16T09:31:30;16.40;99.90
48454;DHT22;34261;55.678;12.464;2022-10-16T09:33:59;16.40;99.90
48454;DHT22;34261;55.678;12.464;2022-10-16T09:36:25;16.50;99.90
48454;DHT22;34261;55.678;12.464;2022-10-16T09:39:01;16.50;99.90
48454;DHT22;34261;55.678;12.464;2022-10-16T09:41:27;16.70;99.90
48454;DHT22;34261;55.678;12.464;2022-10-16T09:43:53;16.80;99.90
48454;DHT22;34261;55.678;12.464;2022-10-16T09:48:53;17.10;99.90
48454;DHT22;34261;55.678;12.464;2022-10-16T09:51:21;17.20;99.90
48454;DHT22;34261;55.678;12.464;2022-10-16T09:53:48;17.50;99.90
48454;DHT22;34261;55.678;12.464;2022-10-16T09:56:30;17.50;99.90
48454;DHT22;34261;55.678;12.464;2022-10-16T09:58:58;17.60;99.90
48454;DHT22;34261;55.678;12.464;2022-10-16T10:01:26;17.70;99.90
48454;DHT22;34261;55.678;12.464;2022-10-16T10:03:55;17.80;99.90
48454;DHT22;34261;55.678;12.464;2022-10-16T10:06:30;17.70;99.90
48454;DHT22;34261;55.678;12.464;2022-10-16T10:09:01;17.70;99.90
48454;DHT22;34261;55.678;12.464;2022-10-16T10:11:40;17.80;99.90
48454;DHT22;34261;55.678;12.464;2022-10-16T10:14:09;17.80;99.90
48454;DHT22;34261;55.678;12.464;2022-10-16T10:16:40;17.80;99.90
48454;DHT22;34261;55.678;12.464;2022-10-16T10:19:09;17.90;99.90
48454;DHT22;34261;55.678;12.464;2022-10-16T10:21:38;18.00;99.90
48454;DHT22;34261;55.678;12.464;2022-10-16T10:24:03;18.10;99.90
48454;DHT22;34261;55.678;12.464;2022-10-16T10:26:30;18.20;99.90
48454;DHT22;34261;55.678;12.464;2022-10-16T10:36:41;18.40;99.90
48454;DHT22;34261;55.678;12.464;2022-10-16T10:39:25;18.50;99.90
48454;DHT22;34261;55.678;12.464;2022-10-16T10:42:05;18.70;99.90
48454;DHT22;34261;55.678;12.464;2022-10-16T10:47:26;18.90;99.90
48454;DHT22;34261;55.678;12.464;2022-10-16T10:49:57;19.00;99.90
48454;DHT22;34261;55.678;12.464;2022-10-16T10:52:32;19.00;99.90
48454;DHT22;34261;55.678;12.464;2022-10-16T11:00:28;18.90;99.90
48454;DHT22;34261;55.678;12.464;2022-10-16T11:10:25;18.80;99.90
48454;DHT22;34261;55.678;12.464;2022-10-16T11:12:53;18.80;99.40
48454;DHT22;34261;55.678;12.464;2022-10-16T11:20:42;18.80;99.50
48454;DHT22;34261;55.678;12.464;2022-10-16T11:23:14;18.50;99.50
48454;DHT22;34261;55.678;12.464;2022-10-16T11:25:40;18.40;99.90
48454;DHT22;34261;55.678;12.464;2022-10-16T11:28:14;18.40;99.30
48454;DHT22;34261;55.678;12.464;2022-10-16T11:30:46;18.30;99.50
48454;DHT22;34261;55.678;12.464;2022-10-16T11:38:14;18.00;99.90
48454;DHT22;34261;55.678;12.464;2022-10-16T11:40:41;17.90;99.90
48454;DHT22;34261;55.678;12.464;2022-10-16T11:45:36;18.00;99.90
48454;DHT22;34261;55.678;12.464;2022-10-16T11:51:02;18.30;99.90
48454;DHT22;34261;55.678;12.464;2022-10-16T11:53:47;18.70;99.90
48454;DHT22;34261;55.678;12.464;2022-10-16T11:56:16;18.60;99.90
48454;DHT22;34261;55.678;12.464;2022-10-16T11:58:53;18.40;99.60
48454;DHT22;34261;55.678;12.464;2022-10-16T12:04:01;18.90;99.70
48454;DHT22;34261;55.678;12.464;2022-10-16T12:08:54;18.40;99.90
48454;DHT22;34261;55.678;12.464;2022-10-16T12:14:07;18.50;99.90
48454;DHT22;34261;55.678;12.464;2022-10-16T12:16:32;18.50;99.60
48454;DHT22;34261;55.678;12.464;2022-10-16T12:19:12;18.60;98.40
48454;DHT22;34261;55.678;12.464;2022-10-16T12:21:38;18.50;99.00
48454;DHT22;34261;55.678;12.464;2022-10-16T12:24:03;18.50;99.20
48454;DHT22;34261;55.678;12.464;2022-10-16T12:26:33;18.80;99.10
48454;DHT22;34261;55.678;12.464;2022-10-16T12:29:20;19.20;99.20
48454;DHT22;34261;55.678;12.464;2022-10-16T12:31:47;19.00;98.70
48454;DHT22;34261;55.678;12.464;2022-10-16T12:34:17;18.90;98.30
48454;DHT22;34261;55.678;12.464;2022-10-16T12:36:45;19.10;98.30
48454;DHT22;34261;55.678;12.464;2022-10-16T12:39:16;19.10;97.70
48454;DHT22;34261;55.678;12.464;2022-10-16T12:41:45;19.00;97.40
48454;DHT22;34261;55.678;12.464;2022-10-16T12:44:21;19.00;97.70
48454;DHT22;34261;55.678;12.464;2022-10-16T12:46:48;18.70;97.90
48454;DHT22;34261;55.678;12.464;2022-10-16T12:49:28;18.60;98.50
48454;DHT22;34261;55.678;12.464;2022-10-16T12:51:54;18.40;98.10
48454;DHT22;34261;55.678;12.464;2022-10-16T12:54:35;18.70;98.70
48454;DHT22;34261;55.678;12.464;2022-10-16T13:05:00;18.80;98.70
48454;DHT22;34261;55.678;12.464;2022-10-16T13:09:58;18.70;98.50
48454;DHT22;34261;55.678;12.464;2022-10-16T13:12:38;18.70;99.00
48454;DHT22;34261;55.678;12.464;2022-10-16T13:15:09;18.70;99.30
48454;DHT22;34261;55.678;12.464;2022-10-16T13:25:26;18.20;99.30
48454;DHT22;34261;55.678;12.464;2022-10-16T13:27:56;18.30;99.70
48454;DHT22;34261;55.678;12.464;2022-10-16T13:30:24;18.40;99.50
48454;DHT22;34261;55.678;12.464;2022-10-16T13:32:50;18.40;99.30
48454;DHT22;34261;55.678;12.464;2022-10-16T13:35:25;18.20;99.70
48454;DHT22;34261;55.678;12.464;2022-10-16T13:37:51;18.00;99.80
48454;DHT22;34261;55.678;12.464;2022-10-16T13:40:21;17.90;99.90
48454;DHT22;34261;55.678;12.464;2022-10-16T13:42:47;17.80;99.90
48454;DHT22;34261;55.678;12.464;2022-10-16T13:45:20;17.70;99.90
48454;DHT22;34261;55.678;12.464;2022-10-16T13:47:46;17.60;99.90
48454;DHT22;34261;55.678;12.464;2022-10-16T13:50:12;17.50;99.90
48454;DHT22;34261;55.678;12.464;2022-10-16T13:52:38;17.50;99.90
48454;DHT22;34261;55.678;12.464;2022-10-16T13:55:04;17.50;99.90
48454;DHT22;34261;55.678;12.464;2022-10-16T13:57:30;17.50;99.90
48454;DHT22;34261;55.678;12.464;2022-10-16T13:59:55;17.60;99.90
48454;DHT22;34261;55.678;12.464;2022-10-16T14:02:22;17.80;99.90
48454;DHT22;34261;55.678;12.464;2022-10-16T14:04:50;17.70;99.90
48454;DHT22;34261;55.678;12.464;2022-10-16T14:07:25;17.70;99.90
48454;DHT22;34261;55.678;12.464;2022-10-16T14:09:52;17.80;99.90
48454;DHT22;34261;55.678;12.464;2022-10-16T14:12:17;17.80;99.90
48454;DHT22;34261;55.678;12.464;2022-10-16T14:14:44;18.00;99.90
48454;DHT22;34261;55.678;12.464;2022-10-16T14:17:13;18.00;99.90
48454;DHT22;34261;55.678;12.464;2022-10-16T14:19:39;18.00;99.90
48454;DHT22;34261;55.678;12.464;2022-10-16T14:22:11;17.90;99.90
48454;DHT22;34261;55.678;12.464;2022-10-16T14:24:44;17.80;99.90
48454;DHT22;34261;55.678;12.464;2022-10-16T14:30:15;17.50;99.90
48454;DHT22;34261;55.678;12.464;2022-10-16T14:32:41;17.20;99.90
48454;DHT22;34261;55.678;12.464;2022-10-16T14:37:52;17.10;99.90
48454;DHT22;34261;55.678;12.464;2022-10-16T14:40:18;17.10;99.90
48454;DHT22;34261;55.678;12.464;2022-10-16T14:42:44;17.00;99.90
48454;DHT22;34261;55.678;12.464;2022-10-16T14:45:10;17.00;99.90
48454;DHT22;34261;55.678;12.464;2022-10-16T14:47:37;16.90;99.90
48454;DHT22;34261;55.678;12.464;2022-10-16T14:50:11;16.80;99.90
48454;DHT22;34261;55.678;12.464;2022-10-16T14:52:37;16.80;99.90
48454;DHT22;34261;55.678;12.464;2022-10-16T14:55:02;16.70;99.90
48454;DHT22;34261;55.678;12.464;2022-10-16T14:57:28;16.60;99.90
48454;DHT22;34261;55.678;12.464;2022-10-16T14:59:56;16.60;99.90
48454;DHT22;34261;55.678;12.464;2022-10-16T15:02:32;16.50;99.90
48454;DHT22;34261;55.678;12.464;2022-10-16T15:05:10;16.40;99.90
48454;DHT22;34261;55.678;12.464;2022-10-16T15:07:36;16.40;99.90
48454;DHT22;34261;55.678;12.464;2022-10-16T15:10:02;16.40;99.90
48454;DHT22;34261;55.678;12.464;2022-10-16T15:12:27;16.40;99.90
48454;DHT22;34261;55.678;12.464;2022-10-16T15:14:53;16.30;99.90
48454;DHT22;34261;55.678;12.464;2022-10-16T15:17:18;16.30;99.90
48454;DHT22;34261;55.678;12.464;2022-10-16T15:19:44;16.20;99.90
48454;DHT22;34261;55.678;12.464;2022-10-16T15:22:10;16.20;99.90
48454;DHT22;34261;55.678;12.464;2022-10-16T15:24:36;16.10;99.90
48454;DHT22;34261;55.678;12.464;2022-10-16T15:27:01;16.10;99.90
48454;DHT22;34261;55.678;12.464;2022-10-16T15:29:27;16.10;99.90
48454;DHT22;34261;55.678;12.464;2022-10-16T15:31:52;16.00;99.90
48454;DHT22;34261;55.678;12.464;2022-10-16T15:34:18;16.00;99.90
48454;DHT22;34261;55.678;12.464;2022-10-16T15:36:44;15.90;99.90
48454;DHT22;34261;55.678;12.464;2022-10-16T15:39:12;16.00;99.90
48454;DHT22;34261;55.678;12.464;2022-10-16T15:41:37;16.00;99.90
48454;DHT22;34261;55.678;12.464;2022-10-16T15:44:03;15.90;99.90
48454;DHT22;34261;55.678;12.464;2022-10-16T15:46:28;15.90;99.70
48454;DHT22;34261;55.678;12.464;2022-10-16T15:48:59;15.90;99.90
48454;DHT22;34261;55.678;12.464;2022-10-16T15:51:25;15.80;99.90
48454;DHT22;34261;55.678;12.464;2022-10-16T15:53:52;15.80;99.90
48454;DHT22;34261;55.678;12.464;2022-10-16T15:56:19;15.70;99.90
48454;DHT22;34261;55.678;12.464;2022-10-16T15:58:44;15.60;99.80
48454;DHT22;34261;55.678;12.464;2022-10-16T16:01:10;15.60;99.60
48454;DHT22;34261;55.678;12.464;2022-10-16T16:03:36;15.60;99.90
48454;DHT22;34261;55.678;12.464;2022-10-16T16:06:10;15.50;99.70
48454;DHT22;34261;55.678;12.464;2022-10-16T16:08:36;15.50;99.70
48454;DHT22;34261;55.678;12.464;2022-10-16T16:11:03;15.50;99.90
48454;DHT22;34261;55.678;12.464;2022-10-16T16:13:30;15.40;99.90
48454;DHT22;34261;55.678;12.464;2022-10-16T16:15:56;15.40;99.90
48454;DHT22;34261;55.678;12.464;2022-10-16T16:18:22;15.30;99.90
48454;DHT22;34261;55.678;12.464;2022-10-16T16:20:49;15.30;99.90
48454;DHT22;34261;55.678;12.464;2022-10-16T16:23:14;15.20;99.90
48454;DHT22;34261;55.678;12.464;2022-10-16T16:25:40;15.20;99.90
48454;DHT22;34261;55.678;12.464;2022-10-16T16:28:06;15.20;99.90
48454;DHT22;34261;55.678;12.464;2022-10-16T16:30:32;15.10;99.90
48454;DHT22;34261;55.678;12.464;2022-10-16T16:32:57;15.00;99.90
48454;DHT22;34261;55.678;12.464;2022-10-16T16:35:23;15.00;99.90
48454;DHT22;34261;55.678;12.464;2022-10-16T16:37:48;15.00;99.90
48454;DHT22;34261;55.678;12.464;2022-10-16T16:40:14;15.00;99.90
48454;DHT22;34261;55.678;12.464;2022-10-16T16:42:39;14.90;99.90
48454;DHT22;34261;55.678;12.464;2022-10-16T16:45:05;14.90;99.90
48454;DHT22;34261;55.678;12.464;2022-10-16T16:47:30;14.90;99.90
48454;DHT22;34261;55.678;12.464;2022-10-16T16:49:57;14.80;99.90
48454;DHT22;34261;55.678;12.464;2022-10-16T16:52:23;14.80;99.90
48454;DHT22;34261;55.678;12.464;2022-10-16T16:54:48;14.70;99.90
48454;DHT22;34261;55.678;12.464;2022-10-16T16:57:20;14.70;99.90
48454;DHT22;34261;55.678;12.464;2022-10-16T16:59:45;14.70;99.90
48454;DHT22;34261;55.678;12.464;2022-10-16T17:02:11;14.70;99.90